Time;durP1;ratioP1;P1;durP2;ratioP2;P2;SDS_P1;SDS_P2;PMS_P1;PMS_P2;Temp;Humidity;BMP_temperature;BMP_pressure;BME280_temperature;BME280_humidity;BME280_pressure;Samples;Min_cycle;Max_cycle;Signal;HPM_P1;HPM_P2
2023/01/13 00:01:45;;;;;;;;;;;;;;;;;;5049943;28;20337;-73
2023/01/13 00:04:11;;;;;;;;;;;;;;;;;;5033035;28;19925;-72
2023/01/13 00:06:37;;;;;;;;;;;;;;;;;;5051664;28;19992;-72
2023/01/13 00:09:03;;;;;;;;;;;;;;;;;;5042641;28;19969;-72
2023/01/13 00:11:29;;;;;;;;;;;;;;;;;;5032673;28;19925;-72
2023/01/13 00:13:55;;;;;;;;;;;;;;;;;;5030748;28;19928;-73
2023/01/13 00:16:21;;;;;;;;;;;;;;;;;;5033336;28;19931;-73
2023/01/13 00:18:47;;;;;;;;;;;;;;;;;;5051199;28;20614;-72
2023/01/13 00:21:13;;;;;;;;;;;;;;;;;;5051521;28;19924;-72
2023/01/13 00:23:39;;;;;;;;;;;;;;;;;;5033000;28;19920;-72
2023/01/13 00:26:04;;;;;;;;;;;;;;;;;;5051189;28;19974;-72
2023/01/13 00:28:30;;;;;;;;;;;;;;;;;;5051158;28;19927;-73
2023/01/13 00:30:57;;;;;;;;;;;;;;;;;;5032299;28;19924;-72
2023/01/13 00:33:23;;;;;;;;;;;;;;;;;;5016595;28;19925;-72
2023/01/13 00:35:49;;;;;;;;;;;;;;;;;;5050962;28;19928;-72
2023/01/13 00:38:15;;;;;;;;;;;;;;;;;;5052690;28;20710;-71
2023/01/13 00:40:40;;;;;;;;;;;;;;;;;;5054832;28;19929;-72
2023/01/13 00:43:22;;;;;;;;;;;;;;;;;;5036374;28;19927;-72
2023/01/13 00:45:50;;;;;;;;;;;;;;;;;;5031751;28;19921;-71
2023/01/13 00:48:16;;;;;;;;;;;;;;;;;;5034630;28;19928;-72
2023/01/13 00:50:42;;;;;;;;;;;;;;;;;;5016849;28;19925;-72
2023/01/13 00:53:08;;;;;;;;;;;;;;;;;;5010547;28;19927;-72
2023/01/13 00:55:34;;;;;;;;;;;;;;;;;;5034067;28;19929;-72
2023/01/13 00:58:02;;;;;;;;;;;;;;;;;;5054122;28;20684;-73
2023/01/13 01:00:28;;;;;;;;;;;;;;;;;;5052643;28;19921;-72
2023/01/13 01:02:54;;;;;;;;;;;;;;;;;;5019891;28;19947;-73
2023/01/13 01:05:19;;;;;;;;;;;;;;;;;;5035218;28;19924;-72
2023/01/13 01:07:45;;;;;;;;;;;;;;;;;;5035837;28;19967;-72
2023/01/13 01:10:11;;;;;;;;;;;;;;;;;;5035521;28;20003;-72
2023/01/13 01:12:37;;;;;;;;;;;;;;;;;;5032991;28;19925;-72
2023/01/13 01:15:04;;;;;;;;;;;;;;;;;;5032619;28;19920;-71
2023/01/13 01:17:30;;;;;;;;;;;;;;;;;;5048447;28;19929;-71
2023/01/13 01:19:56;;;;;;;;;;;;;;;;;;5049243;28;19939;-70
2023/01/13 01:22:22;;;;;;;;;;;;;;;;;;5050043;28;20368;-72
2023/01/13 01:24:48;;;;;;;;;;;;;;;;;;5052824;28;19974;-72
2023/01/13 01:27:14;;;;;;;;;;;;;;;;;;5050978;28;19978;-70
2023/01/13 01:29:40;;;;;;;;;;;;;;;;;;5034248;28;19925;-71
2023/01/13 01:32:06;;;;;;;;;;;;;;;;;;5051953;28;19975;-72
2023/01/13 01:34:32;;;;;;;;;;;;;;;;;;5050395;28;19920;-72
2023/01/13 01:36:57;;;;;;;;;;;;;;;;;;5051914;28;19932;-72
2023/01/13 01:39:23;;;;;;;;;;;;;;;;;;5051896;28;19947;-71
2023/01/13 01:44:34;;;;;;;;;;;;;;;;;;5041672;28;20290;-72
2023/01/13 01:47:00;;;;;;;;;;;;;;;;;;5017483;28;19932;-72
2023/01/13 01:49:25;;;;;;;;;;;;;;;;;;5049753;28;19921;-72
2023/01/13 01:51:51;;;;;;;;;;;;;;;;;;5049111;28;19924;-72
2023/01/13 01:54:17;;;;;;;;;;;;;;;;;;5050812;28;19921;-72
2023/01/13 01:56:43;;;;;;;;;;;;;;;;;;5032812;28;19983;-72
2023/01/13 01:59:09;;;;;;;;;;;;;;;;;;5050598;28;19921;-70
2023/01/13 02:01:35;;;;;;;;;;;;;;;;;;5052441;28;20377;-72
2023/01/13 02:04:01;;;;;;;;;;;;;;;;;;5051192;28;19929;-71
2023/01/13 02:06:27;;;;;;;;;;;;;;;;;;5033532;28;19947;-71
2023/01/13 02:08:53;;;;;;;;;;;;;;;;;;5040785;28;19929;-71
2023/01/13 02:12:28;;;;;;;;;;;;;;;;;;5049534;28;19921;-72
2023/01/13 02:14:05;;;;;;;;;;;;;;;;;;5049904;28;19928;-72
2023/01/13 02:16:30;;;;;;;;;;;;;;;;;;5051247;28;19925;-72
2023/01/13 02:18:56;;;;;;;;;;;;;;;;;;5031446;28;19943;-72
2023/01/13 02:21:22;;;;;;;;;;;;;;;;;;5032651;28;19924;-71
2023/01/13 02:26:33;;;;;;;;;;;;;;;;;;5050814;28;19920;-72
2023/01/13 02:31:43;;;;;;;;;;;;;;;;;;5048621;28;19921;-72
2023/01/13 02:34:09;;;;;;;;;;;;;;;;;;5028654;28;20389;-72
2023/01/13 02:36:35;;;;;;;;;;;;;;;;;;5048903;28;19933;-72
2023/01/13 02:39:01;;;;;;;;;;;;;;;;;;5050357;28;19964;-72
2023/01/13 02:44:11;;;;;;;;;;;;;;;;;;5036391;28;19924;-71
2023/01/13 02:46:37;;;;;;;;;;;;;;;;;;5033048;28;20371;-71
2023/01/13 02:49:03;;;;;;;;;;;;;;;;;;5051256;28;19921;-71
2023/01/13 02:51:29;;;;;;;;;;;;;;;;;;5051601;28;19921;-71
2023/01/13 02:53:55;;;;;;;;;;;;;;;;;;5031837;28;19952;-71
2023/01/13 02:56:21;;;;;;;;;;;;;;;;;;5049011;28;19929;-72
2023/01/13 02:58:47;;;;;;;;;;;;;;;;;;5016403;28;19967;-71
2023/01/13 03:01:13;;;;;;;;;;;;;;;;;;5048525;28;20437;-72
2023/01/13 03:03:39;;;;;;;;;;;;;;;;;;5033490;28;20011;-72
2023/01/13 03:06:04;;;;;;;;;;;;;;;;;;5029383;28;19998;-72
2023/01/13 03:08:30;;;;;;;;;;;;;;;;;;5032063;28;19995;-72
2023/01/13 03:10:56;;;;;;;;;;;;;;;;;;5038644;28;20428;-71
2023/01/13 03:13:22;;;;;;;;;;;;;;;;;;5032286;28;19974;-71
2023/01/13 03:15:48;;;;;;;;;;;;;;;;;;5041048;28;19925;-71
2023/01/13 03:18:14;;;;;;;;;;;;;;;;;;5030925;28;19940;-71
2023/01/13 03:20:40;;;;;;;;;;;;;;;;;;5049025;28;19928;-72
2023/01/13 03:23:06;;;;;;;;;;;;;;;;;;5028113;28;20528;-71
2023/01/13 03:25:32;;;;;;;;;;;;;;;;;;5049757;28;20027;-72
2023/01/13 03:27:57;;;;;;;;;;;;;;;;;;5044215;28;20137;-71
2023/01/13 03:30:23;;;;;;;;;;;;;;;;;;5026314;28;20385;-72
2023/01/13 03:32:49;;;;;;;;;;;;;;;;;;5047823;28;19955;-71
2023/01/13 03:35:15;;;;;;;;;;;;;;;;;;5032100;28;20295;-71
2023/01/13 03:37:41;;;;;;;;;;;;;;;;;;5032904;28;20005;-72
2023/01/13 03:40:07;;;;;;;;;;;;;;;;;;5029449;28;19963;-71
2023/01/13 03:42:33;;;;;;;;;;;;;;;;;;5030356;28;20002;-70
2023/01/13 03:44:59;;;;;;;;;;;;;;;;;;5015131;28;19925;-72
2023/01/13 03:47:25;;;;;;;;;;;;;;;;;;5045643;28;20011;-71
2023/01/13 03:49:51;;;;;;;;;;;;;;;;;;5047001;28;20062;-71
2023/01/13 03:52:17;;;;;;;;;;;;;;;;;;5031188;28;20007;-71
2023/01/13 03:54:42;;;;;;;;;;;;;;;;;;5049268;28;19999;-72
2023/01/13 03:57:08;;;;;;;;;;;;;;;;;;5046629;28;19925;-71
2023/01/13 03:59:34;;;;;;;;;;;;;;;;;;5016477;28;20255;-71
2023/01/13 04:02:00;;;;;;;;;;;;;;;;;;5018657;28;19925;-71
2023/01/13 04:04:26;;;;;;;;;;;;;;;;;;5032237;28;19932;-71
2023/01/13 04:06:52;;;;;;;;;;;;;;;;;;5036650;28;19921;-72
2023/01/13 04:09:18;;;;;;;;;;;;;;;;;;5020600;28;20433;-70
2023/01/13 04:11:44;;;;;;;;;;;;;;;;;;5033887;28;19944;-71
2023/01/13 04:14:10;;;;;;;;;;;;;;;;;;5037363;28;19998;-71
2023/01/13 04:16:36;;;;;;;;;;;;;;;;;;5023355;28;20436;-70
2023/01/13 04:19:02;;;;;;;;;;;;;;;;;;5037633;28;19947;-70
2023/01/13 04:21:28;;;;;;;;;;;;;;;;;;5023794;28;20286;-70
2023/01/13 04:23:54;;;;;;;;;;;;;;;;;;5039399;28;19929;-71
2023/01/13 04:26:22;;;;;;;;;;;;;;;;;;5038091;28;19994;-72
2023/01/13 04:28:48;;;;;;;;;;;;;;;;;;5041088;28;19952;-71
2023/01/13 04:31:14;;;;;;;;;;;;;;;;;;5041163;28;19980;-71
2023/01/13 04:33:40;;;;;;;;;;;;;;;;;;5039386;28;20430;-72
2023/01/13 04:36:05;;;;;;;;;;;;;;;;;;5052982;28;19929;-71
2023/01/13 04:38:31;;;;;;;;;;;;;;;;;;5035718;28;19951;-71
2023/01/13 04:40:57;;;;;;;;;;;;;;;;;;5043717;28;19921;-71
2023/01/13 04:43:23;;;;;;;;;;;;;;;;;;5044981;28;19921;-70
2023/01/13 04:45:49;;;;;;;;;;;;;;;;;;5036172;28;20447;-70
2023/01/13 04:48:15;;;;;;;;;;;;;;;;;;5053604;28;19927;-70
2023/01/13 04:50:41;;;;;;;;;;;;;;;;;;5049554;28;20459;-71
2023/01/13 04:53:07;;;;;;;;;;;;;;;;;;5052920;28;19974;-70
2023/01/13 04:55:33;;;;;;;;;;;;;;;;;;5053972;28;19940;-71
2023/01/13 04:57:59;;;;;;;;;;;;;;;;;;5051522;28;19991;-72
2023/01/13 05:00:25;;;;;;;;;;;;;;;;;;5046898;28;20029;-72
2023/01/13 05:02:51;;;;;;;;;;;;;;;;;;5034241;28;19921;-71
2023/01/13 05:05:17;;;;;;;;;;;;;;;;;;5032561;28;19924;-72
2023/01/13 05:07:42;;;;;;;;;;;;;;;;;;5052044;28;19920;-71
2023/01/13 05:10:08;;;;;;;;;;;;;;;;;;5034237;28;20374;-71
2023/01/13 05:18:03;;;;;;;;;;;;;;;;;;5031860;28;20036;-71
2023/01/13 05:20:29;;;;;;;;;;;;;;;;;;5035202;28;20406;-70
2023/01/13 05:25:40;;;;;;;;;;;;;;;;;;5029593;28;19925;-72
2023/01/13 05:28:06;;;;;;;;;;;;;;;;;;5051900;28;20455;-71
2023/01/13 05:30:32;;;;;;;;;;;;;;;;;;5052083;28;20318;-71
2023/01/13 05:32:58;;;;;;;;;;;;;;;;;;5031693;28;19939;-70
2023/01/13 05:35:23;;;;;;;;;;;;;;;;;;5019719;28;19921;-71
2023/01/13 05:37:49;;;;;;;;;;;;;;;;;;5050507;28;20588;-71
2023/01/13 05:43:18;;;;;;;;;;;;;;;;;;5046685;28;19921;-70
2023/01/13 05:45:45;;;;;;;;;;;;;;;;;;5049294;28;19924;-72
2023/01/13 05:48:11;;;;;;;;;;;;;;;;;;5074677;22;19925;-65
2023/01/13 05:50:37;;;;;;;;;;;;;;;;;;5069356;28;19924;-65
2023/01/13 05:53:03;;;;;;;;;;;;;;;;;;5047237;28;20404;-65
2023/01/13 05:55:29;;;;;;;;;;;;;;;;;;5070737;28;20053;-65
2023/01/13 05:57:54;;;;;;;;;;;;;;;;;;5052376;28;20026;-65
2023/01/13 06:00:20;;;;;;;;;;;;;;;;;;5050046;28;19924;-65
2023/01/13 06:02:46;;;;;;;;;;;;;;;;;;5053647;28;20033;-65
2023/01/13 06:05:12;;;;;;;;;;;;;;;;;;5067117;28;19952;-65
2023/01/13 06:07:38;;;;;;;;;;;;;;;;;;5053564;28;19920;-65
2023/01/13 06:10:04;;;;;;;;;;;;;;;;;;5073158;28;20388;-65
2023/01/13 06:12:30;;;;;;;;;;;;;;;;;;5052254;28;19920;-65
2023/01/13 06:14:56;;;;;;;;;;;;;;;;;;5071760;28;20623;-65
2023/01/13 06:17:22;;;;;;;;;;;;;;;;;;5065578;28;19924;-65
2023/01/13 06:19:48;;;;;;;;;;;;;;;;;;5066507;28;19958;-65
2023/01/13 06:22:13;;;;;;;;;;;;;;;;;;5068293;28;20341;-65
2023/01/13 06:24:39;;;;;;;;;;;;;;;;;;5069867;28;20015;-65
2023/01/13 06:27:05;;;;;;;;;;;;;;;;;;5068323;28;20396;-65
2023/01/13 06:29:31;;;;;;;;;;;;;;;;;;5051909;28;20011;-64
2023/01/13 06:31:57;;;;;;;;;;;;;;;;;;5068184;28;19921;-64
2023/01/13 06:34:23;;;;;;;;;;;;;;;;;;5069248;28;19924;-64
2023/01/13 06:36:49;;;;;;;;;;;;;;;;;;5065896;28;20447;-65
2023/01/13 06:39:15;;;;;;;;;;;;;;;;;;5068959;28;19928;-64
2023/01/13 06:44:25;;;;;;;;;;;;;;;;;;5068269;28;19920;-64
2023/01/13 06:46:51;;;;;;;;;;;;;;;;;;5052043;28;19924;-64
2023/01/13 06:49:17;;;;;;;;;;;;;;;;;;5067915;28;19929;-64
2023/01/13 06:51:43;;;;;;;;;;;;;;;;;;5062666;28;19978;-65
2023/01/13 06:54:09;;;;;;;;;;;;;;;;;;5069346;28;19964;-65
2023/01/13 06:56:35;;;;;;;;;;;;;;;;;;5066956;28;19931;-66
2023/01/13 06:59:01;;;;;;;;;;;;;;;;;;5069739;28;20434;-66
2023/01/13 07:01:27;;;;;;;;;;;;;;;;;;5049231;28;19932;-66
2023/01/13 07:03:52;;;;;;;;;;;;;;;;;;5070569;28;19920;-65
2023/01/13 07:06:18;;;;;;;;;;;;;;;;;;5052779;28;19921;-66
2023/01/13 07:08:44;;;;;;;;;;;;;;;;;;5068707;28;19951;-65
2023/01/13 07:11:10;;;;;;;;;;;;;;;;;;5069386;28;21928;-65
2023/01/13 07:16:23;;;;;;;;;;;;;;;;;;5051354;28;19920;-66
2023/01/13 07:18:48;;;;;;;;;;;;;;;;;;5033763;28;19925;-66
2023/01/13 07:21:18;;;;;;;;;;;;;;;;;;5072352;28;19931;-66
2023/01/13 07:23:44;;;;;;;;;;;;;;;;;;5068530;28;20457;-65
2023/01/13 07:26:10;;;;;;;;;;;;;;;;;;5066233;28;20003;-66
2023/01/13 07:28:36;;;;;;;;;;;;;;;;;;5061784;28;19920;-66
2023/01/13 07:31:02;;;;;;;;;;;;;;;;;;5062447;28;19931;-65
2023/01/13 07:33:31;;;;;;;;;;;;;;;;;;5060998;28;19932;-65
2023/01/13 07:35:57;;;;;;;;;;;;;;;;;;5041227;28;20408;-66
2023/01/13 07:38:23;;;;;;;;;;;;;;;;;;5048983;28;19928;-66
2023/01/13 07:40:49;;;;;;;;;;;;;;;;;;5069005;28;19929;-66
2023/01/13 07:43:33;;;;;;;;;;;;;;;;;;5060368;28;20337;-65
2023/01/13 07:45:59;;;;;;;;;;;;;;;;;;5048282;28;20033;-65
2023/01/13 07:48:25;;;;;;;;;;;;;;;;;;5069761;28;20389;-66
2023/01/13 07:50:51;;;;;;;;;;;;;;;;;;5066667;28;20013;-66
2023/01/13 07:53:18;;;;;;;;;;;;;;;;;;5070634;28;20015;-66
2023/01/13 07:55:44;;;;;;;;;;;;;;;;;;5069756;28;19930;-66
2023/01/13 07:58:10;;;;;;;;;;;;;;;;;;5070826;28;19921;-65
2023/01/13 08:00:35;;;;;;;;;;;;;;;;;;5056220;28;19947;-66
2023/01/13 08:03:01;;;;;;;;;;;;;;;;;;5068560;28;19920;-65
2023/01/13 08:05:27;;;;;;;;;;;;;;;;;;5073391;28;19928;-65
2023/01/13 08:07:53;;;;;;;;;;;;;;;;;;5061017;28;19986;-66
2023/01/13 08:10:19;;;;;;;;;;;;;;;;;;5066079;28;20366;-66
2023/01/13 08:15:30;;;;;;;;;;;;;;;;;;5064964;28;20370;-66
2023/01/13 08:17:56;;;;;;;;;;;;;;;;;;5063263;28;20361;-66
2023/01/13 08:20:22;;;;;;;;;;;;;;;;;;5065829;28;19924;-66
2023/01/13 08:22:48;;;;;;;;;;;;;;;;;;5064500;28;19963;-66
2023/01/13 08:25:14;;;;;;;;;;;;;;;;;;5068371;28;20416;-66
2023/01/13 08:27:39;;;;;;;;;;;;;;;;;;5075282;28;19921;-66
2023/01/13 08:30:05;;;;;;;;;;;;;;;;;;5072387;28;20258;-66
2023/01/13 08:32:31;;;;;;;;;;;;;;;;;;5072381;28;20393;-65
2023/01/13 08:34:57;;;;;;;;;;;;;;;;;;5072888;28;19921;-66
2023/01/13 08:37:23;;;;;;;;;;;;;;;;;;5073147;28;20514;-66
2023/01/13 08:39:49;;;;;;;;;;;;;;;;;;5049203;28;20015;-66
2023/01/13 08:42:15;;;;;;;;;;;;;;;;;;5067317;28;20384;-66
2023/01/13 08:44:41;;;;;;;;;;;;;;;;;;5070287;28;20014;-66
2023/01/13 08:47:07;;;;;;;;;;;;;;;;;;5068297;28;19927;-66
2023/01/13 08:49:32;;;;;;;;;;;;;;;;;;5071971;28;19924;-66
2023/01/13 08:51:58;;;;;;;;;;;;;;;;;;5074084;28;19933;-66
2023/01/13 08:54:24;;;;;;;;;;;;;;;;;;5046088;28;19932;-66
2023/01/13 08:56:50;;;;;;;;;;;;;;;;;;5070085;28;20606;-66
2023/01/13 08:59:16;;;;;;;;;;;;;;;;;;5071683;28;19929;-66
2023/01/13 09:01:42;;;;;;;;;;;;;;;;;;5067856;28;19928;-66
2023/01/13 09:04:08;;;;;;;;;;;;;;;;;;5078737;28;20015;-66
2023/01/13 09:06:34;;;;;;;;;;;;;;;;;;5056211;28;20346;-66
2023/01/13 09:09:01;;;;;;;;;;;;;;;;;;5070310;28;19920;-66
2023/01/13 09:14:11;;;;;;;;;;;;;;;;;;5062219;28;19921;-66
2023/01/13 09:16:37;;;;;;;;;;;;;;;;;;5071250;28;19924;-66
2023/01/13 09:19:03;;;;;;;;;;;;;;;;;;5054346;28;19928;-65
2023/01/13 09:21:29;;;;;;;;;;;;;;;;;;5071386;28;19966;-65
2023/01/13 09:23:55;;;;;;;;;;;;;;;;;;5065710;28;20364;-65
2023/01/13 09:26:21;;;;;;;;;;;;;;;;;;5057749;28;19931;-65
2023/01/13 09:28:47;;;;;;;;;;;;;;;;;;5054319;28;19920;-65
2023/01/13 09:31:13;;;;;;;;;;;;;;;;;;5046752;28;20409;-65
2023/01/13 09:36:23;;;;;;;;;;;;;;;;;;5044134;28;19967;-64
2023/01/13 09:38:49;;;;;;;;;;;;;;;;;;5063329;28;19980;-65
2023/01/13 09:43:52;;;;;;;;;;;;;;;;;;5067252;28;19946;-64
2023/01/13 09:44:00;;;;;;;;;;;;;;;;;;5065842;28;19927;-65
2023/01/13 09:49:14;;;;;;;;;;;;;;;;;;5058911;28;19951;-65
2023/01/13 09:51:40;;;;;;;;;;;;;;;;;;5072785;28;19920;-65
2023/01/13 09:54:06;;;;;;;;;;;;;;;;;;5061230;28;19928;-65
2023/01/13 09:56:32;;;;;;;;;;;;;;;;;;5061942;28;19924;-65
2023/01/13 09:58:58;;;;;;;;;;;;;;;;;;5073557;28;19934;-65
2023/01/13 10:01:24;;;;;;;;;;;;;;;;;;5064122;28;19928;-65
2023/01/13 10:03:50;;;;;;;;;;;;;;;;;;5066535;28;20293;-65
2023/01/13 10:06:16;;;;;;;;;;;;;;;;;;5064772;28;19985;-65
2023/01/13 10:08:41;;;;;;;;;;;;;;;;;;5081977;28;19938;-65
2023/01/13 10:13:56;;;;;;;;;;;;;;;;;;5030068;28;19924;-66
2023/01/13 10:16:22;;;;;;;;;;;;;;;;;;5063511;28;19927;-66
2023/01/13 10:18:48;;;;;;;;;;;;;;;;;;5054033;28;20337;-66
2023/01/13 10:21:14;;;;;;;;;;;;;;;;;;5062888;28;19936;-65
2023/01/13 10:23:40;;;;;;;;;;;;;;;;;;5066311;28;19963;-66
2023/01/13 10:26:06;;;;;;;;;;;;;;;;;;5062696;28;19927;-65
2023/01/13 10:28:32;;;;;;;;;;;;;;;;;;5061215;28;19920;-65
2023/01/13 10:30:58;;;;;;;;;;;;;;;;;;5064862;28;19978;-65
2023/01/13 10:33:24;;;;;;;;;;;;;;;;;;5049054;28;19920;-65
2023/01/13 10:35:50;;;;;;;;;;;;;;;;;;5035940;28;19920;-65
2023/01/13 10:38:16;;;;;;;;;;;;;;;;;;5069874;28;19920;-65
2023/01/13 10:40:42;;;;;;;;;;;;;;;;;;5064920;28;19933;-65
2023/01/13 10:43:07;;;;;;;;;;;;;;;;;;5059576;28;19974;-66
2023/01/13 10:45:33;;;;;;;;;;;;;;;;;;5065037;28;20378;-65
2023/01/13 10:47:59;;;;;;;;;;;;;;;;;;5057237;28;19927;-66
2023/01/13 10:50:25;;;;;;;;;;;;;;;;;;5063849;28;19958;-66
2023/01/13 10:52:51;;;;;;;;;;;;;;;;;;5053700;28;19991;-66
2023/01/13 10:55:17;;;;;;;;;;;;;;;;;;5071025;28;19932;-66
2023/01/13 10:57:43;;;;;;;;;;;;;;;;;;5037984;28;20298;-66
2023/01/13 11:00:10;;;;;;;;;;;;;;;;;;5063812;28;21278;-65
2023/01/13 11:02:37;;;;;;;;;;;;;;;;;;5046358;28;20375;-66
2023/01/13 11:05:03;;;;;;;;;;;;;;;;;;5038480;28;20431;-66
2023/01/13 11:07:29;;;;;;;;;;;;;;;;;;5068755;28;19921;-66
2023/01/13 11:09:55;;;;;;;;;;;;;;;;;;5062570;28;19963;-66
2023/01/13 11:12:20;;;;;;;;;;;;;;;;;;5069445;28;20449;-66
2023/01/13 11:14:46;;;;;;;;;;;;;;;;;;5070872;28;19921;-66
2023/01/13 11:17:12;;;;;;;;;;;;;;;;;;5068615;28;19947;-66
2023/01/13 11:19:38;;;;;;;;;;;;;;;;;;5079523;28;19921;-66
2023/01/13 11:22:04;;;;;;;;;;;;;;;;;;5068502;28;19936;-66
2023/01/13 11:24:31;;;;;;;;;;;;;;;;;;5068261;28;19920;-66
2023/01/13 11:26:57;;;;;;;;;;;;;;;;;;5071555;28;20336;-66
2023/01/13 11:29:23;;;;;;;;;;;;;;;;;;5072666;28;20014;-66
2023/01/13 11:31:49;;;;;;;;;;;;;;;;;;5070836;28;19920;-66
2023/01/13 11:34:15;;;;;;;;;;;;;;;;;;5085598;28;19967;-66
2023/01/13 11:36:41;;;;;;;;;;;;;;;;;;5080573;28;20393;-66
2023/01/13 11:39:08;;;;;;;;;;;;;;;;;;5071803;28;19924;-66
2023/01/13 11:41:34;;;;;;;;;;;;;;;;;;5071621;28;19928;-66
2023/01/13 11:43:59;;;;;;;;;;;;;;;;;;5071525;28;19924;-66
2023/01/13 11:46:25;;;;;;;;;;;;;;;;;;5086543;28;19927;-66
2023/01/13 11:48:55;;;;;;;;;;;;;;;;;;5084745;28;20054;-66
2023/01/13 11:51:20;;;;;;;;;;;;;;;;;;5068948;28;19921;-66
2023/01/13 11:53:46;;;;;;;;;;;;;;;;;;5075763;28;19930;-66
2023/01/13 11:56:13;;;;;;;;;;;;;;;;;;5082234;28;19927;-66
2023/01/13 11:58:38;;;;;;;;;;;;;;;;;;5064645;28;20344;-66
2023/01/13 12:01:04;;;;;;;;;;;;;;;;;;5054516;28;19932;-66
2023/01/13 12:03:30;;;;;;;;;;;;;;;;;;5071353;28;19924;-66
2023/01/13 12:05:58;;;;;;;;;;;;;;;;;;5071631;28;19920;-66
2023/01/13 12:08:24;;;;;;;;;;;;;;;;;;5070692;28;19924;-65
2023/01/13 12:10:50;;;;;;;;;;;;;;;;;;5071132;28;19930;-65
2023/01/13 12:13:16;;;;;;;;;;;;;;;;;;5070114;28;19954;-65
2023/01/13 12:15:42;;;;;;;;;;;;;;;;;;5050310;28;20258;-65
2023/01/13 12:18:08;;;;;;;;;;;;;;;;;;5050898;28;19925;-65
2023/01/13 12:20:34;;;;;;;;;;;;;;;;;;5050663;28;19925;-65
2023/01/13 12:23:01;;;;;;;;;;;;;;;;;;5069887;28;19936;-65
2023/01/13 12:25:27;;;;;;;;;;;;;;;;;;5068415;28;20439;-65
2023/01/13 12:27:52;;;;;;;;;;;;;;;;;;5051220;28;19920;-65
2023/01/13 12:30:18;;;;;;;;;;;;;;;;;;5051418;28;19977;-65
2023/01/13 12:32:44;;;;;;;;;;;;;;;;;;5049828;28;19929;-65
2023/01/13 12:35:10;;;;;;;;;;;;;;;;;;5058729;28;19928;-65
2023/01/13 12:37:36;;;;;;;;;;;;;;;;;;5074245;28;20437;-65
2023/01/13 12:40:02;;;;;;;;;;;;;;;;;;5075261;28;19966;-66
2023/01/13 12:45:13;;;;;;;;;;;;;;;;;;5069644;28;19921;-66
2023/01/13 12:47:39;;;;;;;;;;;;;;;;;;5071307;28;19928;-66
2023/01/13 12:50:04;;;;;;;;;;;;;;;;;;5056165;28;19932;-65
2023/01/13 12:52:33;;;;;;;;;;;;;;;;;;5056576;28;20378;-66
2023/01/13 12:54:59;;;;;;;;;;;;;;;;;;5074446;28;19989;-66
2023/01/13 12:57:24;;;;;;;;;;;;;;;;;;5074740;28;20362;-66
2023/01/13 12:59:50;;;;;;;;;;;;;;;;;;5056670;28;19932;-66
2023/01/13 13:02:17;;;;;;;;;;;;;;;;;;5054829;28;19947;-66
2023/01/13 13:04:43;;;;;;;;;;;;;;;;;;5069066;28;20050;-65
2023/01/13 13:07:09;;;;;;;;;;;;;;;;;;5068045;28;19947;-66
2023/01/13 13:09:35;;;;;;;;;;;;;;;;;;5065533;28;20354;-66
2023/01/13 13:14:27;;;;;;;;;;;;;;;;;;5068528;28;20296;-66
2023/01/13 13:16:53;;;;;;;;;;;;;;;;;;5071925;28;19929;-66
2023/01/13 13:19:19;;;;;;;;;;;;;;;;;;5055635;28;19955;-66
2023/01/13 13:21:44;;;;;;;;;;;;;;;;;;5063915;28;19928;-66
2023/01/13 13:24:10;;;;;;;;;;;;;;;;;;5073520;28;19921;-66
2023/01/13 13:26:36;;;;;;;;;;;;;;;;;;5070605;28;19925;-66
2023/01/13 13:29:02;;;;;;;;;;;;;;;;;;5073993;28;20239;-66
2023/01/13 13:31:28;;;;;;;;;;;;;;;;;;5072048;28;19928;-65
2023/01/13 13:33:54;;;;;;;;;;;;;;;;;;5055184;28;20341;-66
2023/01/13 13:36:20;;;;;;;;;;;;;;;;;;5066299;28;19968;-66
2023/01/13 13:46:59;;;;;;;;;;;;;;;;;;5068932;28;19932;-66
2023/01/13 13:49:25;;;;;;;;;;;;;;;;;;5073308;28;19921;-66
2023/01/13 13:51:51;;;;;;;;;;;;;;;;;;5072440;28;20291;-66
2023/01/13 13:54:17;;;;;;;;;;;;;;;;;;5053021;28;20362;-65
2023/01/13 13:56:43;;;;;;;;;;;;;;;;;;5044335;28;19968;-66
2023/01/13 13:59:09;;;;;;;;;;;;;;;;;;5068778;28;20384;-65
2023/01/13 14:01:35;;;;;;;;;;;;;;;;;;5066270;28;20271;-65
2023/01/13 14:04:01;;;;;;;;;;;;;;;;;;5071007;28;19924;-66
2023/01/13 14:06:28;;;;;;;;;;;;;;;;;;5049266;28;19974;-66
2023/01/13 14:08:54;;;;;;;;;;;;;;;;;;5064630;28;20015;-66
2023/01/13 14:11:20;;;;;;;;;;;;;;;;;;5048693;28;19999;-65
2023/01/13 14:13:46;;;;;;;;;;;;;;;;;;5065174;28;20293;-65
2023/01/13 14:16:12;;;;;;;;;;;;;;;;;;5052467;28;19924;-66
2023/01/13 14:18:38;;;;;;;;;;;;;;;;;;5073028;28;20308;-66
2023/01/13 14:21:03;;;;;;;;;;;;;;;;;;5067277;28;19953;-66
2023/01/13 14:23:29;;;;;;;;;;;;;;;;;;5072714;28;19999;-66
2023/01/13 14:25:55;;;;;;;;;;;;;;;;;;5052715;28;19924;-66
2023/01/13 14:28:21;;;;;;;;;;;;;;;;;;5053143;28;19924;-65
2023/01/13 14:30:48;;;;;;;;;;;;;;;;;;5071549;28;19928;-65
2023/01/13 14:33:14;;;;;;;;;;;;;;;;;;5066729;28;20015;-66
2023/01/13 14:35:40;;;;;;;;;;;;;;;;;;5071521;28;20024;-66
2023/01/13 14:38:07;;;;;;;;;;;;;;;;;;5065362;28;19928;-66
2023/01/13 14:40:35;;;;;;;;;;;;;;;;;;5058883;28;19924;-66
2023/01/13 14:43:01;;;;;;;;;;;;;;;;;;5068064;28;19924;-66
2023/01/13 14:45:26;;;;;;;;;;;;;;;;;;5062321;28;19928;-66
2023/01/13 14:47:52;;;;;;;;;;;;;;;;;;5070422;28;19932;-65
2023/01/13 14:50:18;;;;;;;;;;;;;;;;;;5064048;28;19974;-65
2023/01/13 14:52:44;;;;;;;;;;;;;;;;;;5072310;28;20282;-65
2023/01/13 14:55:10;;;;;;;;;;;;;;;;;;5067296;28;19924;-66
2023/01/13 14:57:38;;;;;;;;;;;;;;;;;;5072691;28;19924;-66
2023/01/13 15:00:04;;;;;;;;;;;;;;;;;;5070082;28;19927;-66
2023/01/13 15:02:30;;;;;;;;;;;;;;;;;;5063082;28;19927;-66
2023/01/13 15:04:58;;;;;;;;;;;;;;;;;;5053475;28;19924;-65
2023/01/13 15:07:23;;;;;;;;;;;;;;;;;;5061696;28;19925;-66
2023/01/13 15:09:49;;;;;;;;;;;;;;;;;;5052742;28;20393;-66
2023/01/13 15:12:15;;;;;;;;;;;;;;;;;;5070378;28;19924;-66
2023/01/13 15:14:41;;;;;;;;;;;;;;;;;;5049101;28;19920;-65
2023/01/13 15:17:07;;;;;;;;;;;;;;;;;;5051624;28;20356;-66
2023/01/13 15:19:33;;;;;;;;;;;;;;;;;;5069252;28;20368;-66
2023/01/13 15:21:59;;;;;;;;;;;;;;;;;;5063103;28;19967;-66
2023/01/13 15:24:25;;;;;;;;;;;;;;;;;;5062763;28;19920;-66
2023/01/13 15:26:51;;;;;;;;;;;;;;;;;;5065245;28;20026;-66
2023/01/13 15:29:17;;;;;;;;;;;;;;;;;;5070360;28;19924;-66
2023/01/13 15:31:43;;;;;;;;;;;;;;;;;;5073189;28;19929;-66
2023/01/13 15:34:09;;;;;;;;;;;;;;;;;;5071435;28;19974;-66
2023/01/13 15:36:36;;;;;;;;;;;;;;;;;;5071415;28;20274;-66
2023/01/13 15:39:02;;;;;;;;;;;;;;;;;;5053349;28;19920;-66
2023/01/13 15:46:57;;;;;;;;;;;;;;;;;;5072782;28;19925;-66
2023/01/13 15:49:23;;;;;;;;;;;;;;;;;;5072098;28;19925;-66
2023/01/13 15:51:49;;;;;;;;;;;;;;;;;;5044297;28;20431;-66
2023/01/13 15:54:15;;;;;;;;;;;;;;;;;;5059290;28;19924;-66
2023/01/13 15:56:41;;;;;;;;;;;;;;;;;;5069721;28;19982;-66
2023/01/13 15:59:07;;;;;;;;;;;;;;;;;;5069660;28;19924;-66
2023/01/13 16:01:33;;;;;;;;;;;;;;;;;;5066937;28;20339;-66
2023/01/13 16:03:59;;;;;;;;;;;;;;;;;;5069747;28;19927;-66
2023/01/13 16:06:26;;;;;;;;;;;;;;;;;;5065428;28;19928;-66
2023/01/13 16:08:52;;;;;;;;;;;;;;;;;;5063560;28;19943;-66
2023/01/13 16:11:18;;;;;;;;;;;;;;;;;;5070815;28;20011;-66
2023/01/13 16:13:44;;;;;;;;;;;;;;;;;;5071414;28;20001;-66
2023/01/13 16:16:10;;;;;;;;;;;;;;;;;;5067400;28;20330;-66
2023/01/13 16:18:36;;;;;;;;;;;;;;;;;;5074314;28;19935;-66
2023/01/13 16:21:02;;;;;;;;;;;;;;;;;;5074665;28;19920;-66
2023/01/13 16:23:27;;;;;;;;;;;;;;;;;;5062786;28;19925;-66
2023/01/13 16:25:53;;;;;;;;;;;;;;;;;;5054989;28;20402;-66
2023/01/13 16:28:19;;;;;;;;;;;;;;;;;;5066729;28;19921;-66
2023/01/13 16:30:45;;;;;;;;;;;;;;;;;;5071707;28;19921;-66
2023/01/13 16:33:11;;;;;;;;;;;;;;;;;;5069357;28;20310;-65
2023/01/13 16:35:37;;;;;;;;;;;;;;;;;;5057505;28;19924;-66
2023/01/13 16:38:03;;;;;;;;;;;;;;;;;;5067810;28;20029;-66
2023/01/13 16:40:29;;;;;;;;;;;;;;;;;;5052110;28;19920;-66
2023/01/13 16:42:55;;;;;;;;;;;;;;;;;;5060789;28;19944;-66
2023/01/13 16:45:21;;;;;;;;;;;;;;;;;;5042265;28;20015;-66
2023/01/13 16:47:46;;;;;;;;;;;;;;;;;;5041270;28;20850;-66
2023/01/13 16:50:12;;;;;;;;;;;;;;;;;;5065176;28;19921;-66
2023/01/13 16:52:38;;;;;;;;;;;;;;;;;;5044967;28;19921;-66
2023/01/13 16:55:04;;;;;;;;;;;;;;;;;;5060643;28;19929;-66
2023/01/13 16:57:30;;;;;;;;;;;;;;;;;;5064155;28;19972;-66
2023/01/13 16:59:56;;;;;;;;;;;;;;;;;;5043891;28;20436;-66
2023/01/13 17:02:23;;;;;;;;;;;;;;;;;;5072236;28;19931;-66
2023/01/13 17:04:49;;;;;;;;;;;;;;;;;;5070439;28;19920;-66
2023/01/13 17:07:15;;;;;;;;;;;;;;;;;;5067255;28;20401;-65
2023/01/13 17:09:41;;;;;;;;;;;;;;;;;;5068727;28;20409;-66
2023/01/13 17:12:07;;;;;;;;;;;;;;;;;;5072382;28;19920;-66
2023/01/13 17:14:32;;;;;;;;;;;;;;;;;;5067796;28;20289;-66
2023/01/13 17:16:58;;;;;;;;;;;;;;;;;;5064423;28;19929;-66
2023/01/13 17:19:24;;;;;;;;;;;;;;;;;;5062491;28;19934;-66
2023/01/13 17:21:50;;;;;;;;;;;;;;;;;;5090890;28;20353;-65
2023/01/13 17:24:16;;;;;;;;;;;;;;;;;;5078573;28;20024;-66
2023/01/13 17:26:45;;;;;;;;;;;;;;;;;;5071542;28;20334;-66
2023/01/13 17:29:11;;;;;;;;;;;;;;;;;;5058621;28;20029;-66
2023/01/13 17:31:37;;;;;;;;;;;;;;;;;;5058092;28;20437;-66
2023/01/13 17:34:03;;;;;;;;;;;;;;;;;;5073553;28;19927;-66
2023/01/13 17:36:29;;;;;;;;;;;;;;;;;;5079548;28;19920;-66
2023/01/13 17:38:55;;;;;;;;;;;;;;;;;;5078033;28;19999;-66